Time;durP1;ratioP1;P1;durP2;ratioP2;P2;SDS_P1;SDS_P2;PMS_P1;PMS_P2;Temp;Humidity;BMP_temperature;BMP_pressure;BME280_temperature;BME280_humidity;BME280_pressure;Samples;Min_cycle;Max_cycle;Signal;HPM_P1;HPM_P2
2021/03/13 00:00:05;;;;;;;17.95;4.22;;;12.90;96.70;;;;;;4961511;28;20057;-72
2021/03/13 00:02:38;;;;;;;14.77;3.65;;;12.90;96.70;;;;;;4976593;28;20133;-72
2021/03/13 00:05:07;;;;;;;15.65;3.65;;;13.00;96.70;;;;;;4979032;28;20583;-73
2021/03/13 00:07:34;;;;;;;13.35;3.50;;;12.90;96.70;;;;;;4981534;28;20054;-72
2021/03/13 00:10:03;;;;;;;15.40;3.35;;;12.90;96.70;;;;;;4981188;28;20052;-73
2021/03/13 00:12:31;;;;;;;18.35;3.95;;;12.80;96.70;;;;;;4972283;28;20108;-73
2021/03/13 00:14:58;;;;;;;14.35;3.30;;;12.90;96.70;;;;;;4980862;28;20133;-73
2021/03/13 00:17:25;;;;;;;9.77;2.80;;;12.80;96.70;;;;;;4978810;28;20404;-72
2021/03/13 00:19:53;;;;;;;13.77;3.30;;;12.80;96.70;;;;;;4981806;28;20036;-73
2021/03/13 00:22:21;;;;;;;14.77;3.00;;;12.90;96.70;;;;;;4975983;28;20274;-73
2021/03/13 00:24:48;;;;;;;10.43;3.40;;;12.90;96.70;;;;;;4974592;28;20499;-72
2021/03/13 00:27:16;;;;;;;12.95;3.15;;;12.90;96.70;;;;;;4979538;28;20139;-72
2021/03/13 00:29:44;;;;;;;14.02;3.25;;;12.90;96.70;;;;;;4973251;28;20042;-72
2021/03/13 00:32:11;;;;;;;14.90;3.22;;;12.90;96.70;;;;;;4973056;28;20388;-72
2021/03/13 00:34:38;;;;;;;11.60;2.63;;;12.90;96.70;;;;;;4973375;28;20038;-72
2021/03/13 00:37:06;;;;;;;12.45;3.42;;;12.90;96.70;;;;;;4958242;28;20122;-72
2021/03/13 00:39:48;;;;;;;13.18;3.22;;;12.90;96.70;;;;;;4952362;28;20042;-73
2021/03/13 00:42:16;;;;;;;16.42;3.03;;;12.90;96.70;;;;;;4976543;28;20053;-72
2021/03/13 00:44:44;;;;;;;15.02;3.10;;;12.90;96.70;;;;;;4977837;28;20045;-72
2021/03/13 00:47:12;;;;;;;12.77;2.58;;;12.90;96.70;;;;;;4980122;28;20162;-73
2021/03/13 00:49:39;;;;;;;9.57;2.33;;;12.90;96.70;;;;;;4975323;28;20245;-73
2021/03/13 00:52:07;;;;;;;15.25;3.13;;;12.90;96.70;;;;;;4972557;28;20389;-73
2021/03/13 00:54:34;;;;;;;12.48;2.95;;;12.90;96.70;;;;;;4971640;28;20381;-73
2021/03/13 00:57:01;;;;;;;12.88;3.35;;;13.00;96.70;;;;;;4982373;28;20050;-73
2021/03/13 00:59:29;;;;;;;13.43;2.97;;;12.90;96.70;;;;;;4978918;28;20051;-73
2021/03/13 01:01:58;;;;;;;12.32;2.85;;;12.90;96.70;;;;;;4968291;28;20094;-72
2021/03/13 01:04:25;;;;;;;15.25;3.15;;;12.90;96.70;;;;;;4975668;28;20361;-72
2021/03/13 01:06:53;;;;;;;16.38;3.10;;;12.90;96.70;;;;;;4975677;28;20041;-73
2021/03/13 01:09:21;;;;;;;14.18;3.63;;;12.80;96.70;;;;;;4973610;28;20149;-72
2021/03/13 01:11:48;;;;;;;14.73;3.78;;;12.80;96.70;;;;;;4958084;28;20045;-72
2021/03/13 01:14:16;;;;;;;12.75;3.10;;;12.70;96.70;;;;;;4974557;28;20594;-73
2021/03/13 01:16:46;;;;;;;15.73;3.55;;;12.50;96.70;;;;;;4960371;28;20582;-72
2021/03/13 01:19:15;;;;;;;13.30;3.78;;;12.40;96.70;;;;;;4973688;28;20042;-72
2021/03/13 01:21:46;;;;;;;15.55;3.35;;;12.50;96.70;;;;;;4954937;28;20045;-72
2021/03/13 01:24:13;;;;;;;12.93;2.75;;;12.40;96.70;;;;;;4973147;28;20420;-73
2021/03/13 01:26:42;;;;;;;15.48;2.95;;;12.30;96.70;;;;;;4978877;28;20041;-73
2021/03/13 01:29:12;;;;;;;18.30;4.68;;;12.30;96.70;;;;;;4972662;28;20050;-72
2021/03/13 01:31:46;;;;;;;10.15;3.05;;;12.30;96.70;;;;;;4977761;28;20436;-73
2021/03/13 01:34:18;;;;;;;12.90;3.40;;;12.20;96.70;;;;;;4968058;28;20042;-72
2021/03/13 01:36:53;;;;;;;13.55;3.10;;;12.00;96.70;;;;;;4975933;28;20073;-72
2021/03/13 01:39:20;;;;;;;16.42;3.13;;;12.00;96.70;;;;;;4976578;28;20448;-73
2021/03/13 01:41:48;;;;;;;15.27;3.03;;;12.00;96.70;;;;;;4973454;28;20117;-73
2021/03/13 01:44:15;;;;;;;13.32;2.85;;;12.10;96.70;;;;;;4973408;28;20050;-72
2021/03/13 01:46:43;;;;;;;12.68;3.42;;;12.10;96.70;;;;;;4974633;28;20045;-72
2021/03/13 01:49:17;;;;;;;12.65;3.17;;;12.20;96.70;;;;;;4975067;28;20088;-73
2021/03/13 01:51:45;;;;;;;13.93;2.55;;;12.20;96.70;;;;;;4978153;28;20045;-72
2021/03/13 01:54:13;;;;;;;16.55;3.95;;;12.10;96.70;;;;;;4975633;28;20066;-73
2021/03/13 01:56:42;;;;;;;15.07;3.70;;;12.10;96.70;;;;;;4970356;28;20066;-73
2021/03/13 01:59:09;;;;;;;14.40;2.50;;;12.20;96.70;;;;;;4978161;28;20042;-72
2021/03/13 02:01:44;;;;;;;12.27;3.03;;;12.30;96.70;;;;;;4976980;28;20035;-72
2021/03/13 02:04:15;;;;;;;11.38;3.30;;;12.30;96.70;;;;;;4977476;28;20435;-72
2021/03/13 02:06:57;;;;;;;11.85;2.70;;;12.30;96.70;;;;;;4976698;28;20461;-72
2021/03/13 02:09:30;;;;;;;18.42;3.33;;;12.40;96.70;;;;;;4972781;28;20125;-72
2021/03/13 02:12:09;;;;;;;13.07;2.85;;;12.30;96.70;;;;;;4975984;28;20077;-72
2021/03/13 02:14:47;;;;;;;9.52;3.00;;;12.30;96.70;;;;;;4994172;28;20137;-73
2021/03/13 02:17:24;;;;;;;13.82;3.05;;;12.40;96.70;;;;;;4977779;28;20547;-72
2021/03/13 02:20:19;;;;;;;10.30;3.13;;;12.30;96.70;;;;;;4977357;28;20612;-73
2021/03/13 02:22:54;;;;;;;11.57;2.70;;;12.40;96.70;;;;;;4978193;28;20429;-72
2021/03/13 02:25:42;;;;;;;9.82;2.33;;;12.30;96.70;;;;;;4970977;28;20074;-72
2021/03/13 02:28:18;;;;;;;15.80;3.08;;;12.20;96.70;;;;;;4974560;28;20039;-72
2021/03/13 02:30:48;;;;;;;10.75;3.25;;;12.30;96.70;;;;;;4960134;28;20046;-73
2021/03/13 02:33:21;;;;;;;13.63;3.13;;;12.30;96.70;;;;;;4962320;28;20049;-73
2021/03/13 02:36:00;;;;;;;13.23;3.45;;;12.20;96.70;;;;;;4972504;28;20420;-73
2021/03/13 02:38:39;;;;;;;11.35;2.30;;;12.30;96.70;;;;;;4974979;28;20524;-72
2021/03/13 02:41:12;;;;;;;12.07;2.85;;;12.20;96.70;;;;;;4975898;28;20061;-73
2021/03/13 02:43:45;;;;;;;12.48;2.55;;;12.20;96.70;;;;;;4977691;28;20093;-73
2021/03/13 02:46:17;;;;;;;14.48;3.05;;;12.30;96.70;;;;;;4972562;28;20035;-72
2021/03/13 02:48:46;;;;;;;14.02;3.15;;;12.30;96.70;;;;;;4978933;28;20050;-73
2021/03/13 02:51:17;;;;;;;10.57;2.90;;;12.30;96.70;;;;;;4981499;28;20400;-72
2021/03/13 02:53:46;;;;;;;11.50;3.10;;;12.30;96.70;;;;;;4980608;28;20046;-72
2021/03/13 02:56:15;;;;;;;11.52;2.67;;;12.40;96.70;;;;;;4978076;28;20138;-73
2021/03/13 02:58:49;;;;;;;11.93;2.47;;;12.40;96.70;;;;;;4977169;28;20985;-73
2021/03/13 03:01:26;;;;;;;12.95;2.55;;;12.40;96.70;;;;;;4975905;28;20048;-73
2021/03/13 03:03:57;;;;;;;14.02;3.08;;;12.40;96.70;;;;;;4981703;28;20619;-72
2021/03/13 03:06:33;;;;;;;10.40;2.80;;;12.40;96.70;;;;;;4982311;28;20647;-72
2021/03/13 03:09:05;;;;;;;7.38;2.28;;;12.40;96.70;;;;;;4979252;28;20055;-72
2021/03/13 03:11:40;;;;;;;11.68;2.60;;;12.40;96.70;;;;;;4976633;28;20379;-72
2021/03/13 03:14:11;;;;;;;16.38;3.08;;;12.40;96.70;;;;;;4977391;28;20851;-73
2021/03/13 03:16:42;;;;;;;11.35;2.42;;;12.40;96.70;;;;;;4978046;28;20149;-72
2021/03/13 03:19:11;;;;;;;17.90;3.25;;;12.40;96.70;;;;;;4983111;28;20038;-72
2021/03/13 03:21:44;;;;;;;13.57;3.20;;;12.40;96.70;;;;;;4979908;28;20057;-72
2021/03/13 03:24:13;;;;;;;10.98;2.55;;;12.40;96.70;;;;;;4973804;28;20046;-73
2021/03/13 03:26:40;;;;;;;10.75;2.90;;;12.40;96.70;;;;;;4967909;28;20046;-72
2021/03/13 03:29:09;;;;;;;11.07;3.13;;;12.40;96.70;;;;;;4977856;28;20500;-73
2021/03/13 03:31:37;;;;;;;14.52;3.45;;;12.30;96.70;;;;;;4983093;28;20100;-72
2021/03/13 03:34:09;;;;;;;9.95;2.67;;;12.20;96.70;;;;;;4964089;28;20382;-72
2021/03/13 03:36:39;;;;;;;10.02;2.67;;;12.30;96.70;;;;;;4977960;28;20526;-72
2021/03/13 03:39:08;;;;;;;13.43;3.10;;;12.20;96.70;;;;;;4978008;28;20058;-73
2021/03/13 03:41:42;;;;;;;15.75;3.85;;;12.20;96.70;;;;;;4979703;28;20126;-72
2021/03/13 03:44:13;;;;;;;10.95;3.10;;;12.20;96.70;;;;;;4978705;28;20488;-73
2021/03/13 03:46:46;;;;;;;11.88;3.03;;;12.20;96.70;;;;;;4984588;28;20054;-72
2021/03/13 03:49:19;;;;;;;13.45;3.05;;;12.20;96.70;;;;;;4974552;28;20058;-73
2021/03/13 03:51:57;;;;;;;12.77;2.65;;;12.20;96.70;;;;;;4975959;28;20609;-73
2021/03/13 03:54:25;;;;;;;13.65;2.95;;;12.20;96.70;;;;;;4975869;28;20331;-72
2021/03/13 03:56:53;;;;;;;13.23;3.05;;;12.10;96.70;;;;;;4978047;28;20464;-73
2021/03/13 03:59:22;;;;;;;15.60;2.75;;;12.10;96.70;;;;;;4972596;28;20038;-72
2021/03/13 04:01:53;;;;;;;8.93;1.98;;;12.20;96.70;;;;;;4957767;28;20034;-72
2021/03/13 04:04:23;;;;;;;7.63;2.38;;;12.20;96.70;;;;;;4976199;28;20126;-73
2021/03/13 04:06:52;;;;;;;11.68;2.65;;;12.20;96.70;;;;;;4977706;28;20038;-73
2021/03/13 04:09:23;;;;;;;12.50;2.95;;;12.20;96.70;;;;;;4974273;28;20567;-72
2021/03/13 04:11:51;;;;;;;7.78;2.20;;;12.20;96.70;;;;;;4983179;28;20494;-72
2021/03/13 04:14:20;;;;;;;11.20;2.65;;;12.20;96.70;;;;;;4998774;28;20729;-72
2021/03/13 04:16:49;;;;;;;13.55;2.80;;;12.20;96.70;;;;;;4970856;28;20042;-72
2021/03/13 04:19:17;;;;;;;10.25;2.45;;;12.20;96.70;;;;;;4970045;28;20043;-72
2021/03/13 04:21:46;;;;;;;12.63;2.45;;;12.20;96.70;;;;;;4961727;28;20054;-73
2021/03/13 04:24:14;;;;;;;11.00;2.95;;;12.10;96.70;;;;;;4979455;28;20049;-73
2021/03/13 04:26:42;;;;;;;14.25;3.38;;;12.10;96.70;;;;;;4972960;28;20057;-72
2021/03/13 04:29:10;;;;;;;9.85;3.25;;;12.20;96.70;;;;;;4976171;28;20038;-73
2021/03/13 04:31:38;;;;;;;11.90;1.80;;;12.10;96.70;;;;;;4990487;28;20046;-73
2021/03/13 04:34:07;;;;;;;12.45;2.78;;;12.20;96.70;;;;;;4973342;28;20101;-72
2021/03/13 04:36:34;;;;;;;12.15;2.90;;;12.10;96.70;;;;;;4966293;28;20525;-72
2021/03/13 04:39:04;;;;;;;12.32;2.58;;;12.00;96.70;;;;;;4975686;28;20049;-73
2021/03/13 04:41:33;;;;;;;14.20;2.85;;;12.00;96.70;;;;;;4968755;28;20074;-72
2021/03/13 04:44:02;;;;;;;9.95;2.65;;;12.00;96.70;;;;;;4972453;28;20038;-72
2021/03/13 04:46:33;;;;;;;9.02;2.55;;;11.90;96.70;;;;;;4974511;28;20475;-72
2021/03/13 04:49:03;;;;;;;11.82;2.60;;;11.90;96.70;;;;;;4971523;28;20566;-72
2021/03/13 04:51:31;;;;;;;12.02;3.28;;;11.80;96.70;;;;;;4975629;28;20053;-72
2021/03/13 04:53:58;;;;;;;15.32;2.85;;;11.80;96.70;;;;;;4976523;28;20038;-72
2021/03/13 04:56:26;;;;;;;13.88;2.80;;;11.80;96.70;;;;;;4977390;28;20072;-72
2021/03/13 04:58:55;;;;;;;13.35;2.97;;;11.70;96.70;;;;;;4979667;28;20085;-72
2021/03/13 05:01:22;;;;;;;10.27;2.42;;;11.70;96.70;;;;;;4981069;28;20045;-73
2021/03/13 05:03:49;;;;;;;13.82;2.55;;;11.70;96.70;;;;;;4979147;28;20050;-72
2021/03/13 05:06:17;;;;;;;12.40;2.85;;;11.70;96.70;;;;;;4977482;28;20041;-72
2021/03/13 05:08:44;;;;;;;9.77;2.05;;;11.70;96.70;;;;;;4973128;28;20060;-72
2021/03/13 05:11:11;;;;;;;12.30;2.20;;;11.70;96.70;;;;;;4983834;28;20035;-72
2021/03/13 05:13:39;;;;;;;8.32;1.73;;;11.80;96.70;;;;;;4978077;28;20080;-72
2021/03/13 05:16:07;;;;;;;16.40;2.60;;;11.80;96.70;;;;;;4977789;28;20045;-72
2021/03/13 05:18:34;;;;;;;13.68;3.45;;;11.70;96.70;;;;;;4975590;28;20053;-72
2021/03/13 05:21:02;;;;;;;10.85;2.50;;;11.60;96.70;;;;;;4975123;28;20039;-72
2021/03/13 05:23:30;;;;;;;13.57;3.20;;;11.50;96.70;;;;;;4978987;28;20043;-72
2021/03/13 05:25:57;;;;;;;11.18;2.55;;;11.50;96.70;;;;;;4977890;28;20497;-73
2021/03/13 05:28:25;;;;;;;12.25;2.75;;;11.50;96.70;;;;;;4970084;28;20048;-72
2021/03/13 05:30:53;;;;;;;12.45;2.88;;;11.40;96.70;;;;;;4973889;28;20516;-72
2021/03/13 05:33:20;;;;;;;15.15;3.00;;;11.40;96.70;;;;;;4970464;28;20039;-72
2021/03/13 05:35:48;;;;;;;13.25;3.33;;;11.40;96.70;;;;;;4975381;28;20045;-73
2021/03/13 05:38:15;;;;;;;8.07;2.50;;;11.30;96.70;;;;;;4994338;28;20097;-72
2021/03/13 05:40:42;;;;;;;8.07;2.25;;;11.30;96.70;;;;;;4960431;28;20745;-72
2021/03/13 05:43:12;;;;;;;11.23;2.88;;;11.30;96.70;;;;;;4975222;28;20129;-72
2021/03/13 05:45:40;;;;;;;19.10;3.22;;;11.30;96.70;;;;;;4976085;28;20579;-72
2021/03/13 05:48:10;;;;;;;11.48;2.95;;;11.30;96.70;;;;;;4974289;28;20184;-72
2021/03/13 05:50:37;;;;;;;12.88;3.22;;;11.40;96.70;;;;;;4978161;28;20408;-72
2021/03/13 05:53:09;;;;;;;10.95;3.22;;;11.40;96.70;;;;;;4976856;28;20089;-73
2021/03/13 05:55:37;;;;;;;13.50;2.75;;;11.40;96.70;;;;;;4973245;28;20051;-72
2021/03/13 05:58:06;;;;;;;14.90;4.25;;;11.40;96.70;;;;;;4971839;28;20070;-72
2021/03/13 06:00:36;;;;;;;13.20;2.90;;;11.50;96.70;;;;;;4975043;28;20030;-73
2021/03/13 06:03:04;;;;;;;11.77;2.97;;;11.40;96.70;;;;;;4972983;28;20034;-72
2021/03/13 06:05:34;;;;;;;9.95;2.70;;;11.30;96.70;;;;;;4971472;28;20051;-72
2021/03/13 06:08:03;;;;;;;15.32;3.88;;;11.10;96.70;;;;;;4974860;28;20128;-72
2021/03/13 06:10:30;;;;;;;8.48;2.55;;;10.90;96.70;;;;;;4974482;28;20042;-72
2021/03/13 06:12:58;;;;;;;15.57;2.70;;;10.90;96.70;;;;;;4976544;28;20449;-72
2021/03/13 06:15:28;;;;;;;10.52;2.78;;;10.90;96.70;;;;;;4972200;28;20054;-72
2021/03/13 06:17:57;;;;;;;13.25;2.92;;;10.90;96.70;;;;;;4969469;28;20511;-72
2021/03/13 06:20:35;;;;;;;11.48;2.85;;;10.90;96.70;;;;;;4982728;28;20388;-73
2021/03/13 06:23:11;;;;;;;11.82;3.20;;;11.00;96.70;;;;;;4979029;28;20065;-73
2021/03/13 06:25:39;;;;;;;10.40;3.30;;;11.00;96.70;;;;;;4976186;28;20061;-72
2021/03/13 06:28:09;;;;;;;11.77;4.07;;;10.90;96.70;;;;;;4991849;28;20050;-72
2021/03/13 06:30:38;;;;;;;12.38;3.15;;;10.90;96.70;;;;;;4975441;28;20050;-72
2021/03/13 06:33:24;;;;;;;15.43;3.35;;;11.00;96.70;;;;;;4979401;28;20138;-72
2021/03/13 06:35:55;;;;;;;13.07;3.30;;;11.00;96.70;;;;;;4977325;28;20047;-72
2021/03/13 06:38:24;;;;;;;14.93;4.05;;;10.90;96.70;;;;;;4997988;28;20135;-72
2021/03/13 06:40:54;;;;;;;16.33;3.58;;;11.10;96.70;;;;;;4978982;28;20057;-73
2021/03/13 06:43:24;;;;;;;15.70;4.22;;;11.30;96.70;;;;;;4964603;28;20476;-72
2021/03/13 06:45:54;;;;;;;13.50;4.13;;;11.40;96.70;;;;;;4976912;28;20057;-73
2021/03/13 06:48:29;;;;;;;15.27;3.50;;;11.40;96.70;;;;;;4961410;28;20650;-73
2021/03/13 06:51:25;;;;;;;15.85;3.95;;;11.50;96.70;;;;;;4975122;28;20047;-73
2021/03/13 06:54:06;;;;;;;17.13;3.97;;;11.40;96.70;;;;;;4976818;28;20496;-73
2021/03/13 06:56:37;;;;;;;14.75;3.47;;;11.60;96.70;;;;;;4976410;28;20125;-72
2021/03/13 06:59:21;;;;;;;12.63;3.65;;;11.60;96.70;;;;;;4980485;28;20045;-73
2021/03/13 07:01:58;;;;;;;10.13;3.70;;;11.80;96.70;;;;;;4983315;28;20463;-73
2021/03/13 07:04:30;;;;;;;16.55;4.88;;;11.90;96.70;;;;;;4978995;28;20129;-73
2021/03/13 07:06:58;;;;;;;15.48;3.95;;;11.90;96.70;;;;;;4977189;28;20495;-74
2021/03/13 07:09:43;;;;;;;12.02;3.83;;;12.00;96.70;;;;;;4975271;28;20039;-74
2021/03/13 07:12:22;;;;;;;12.30;3.28;;;12.10;96.70;;;;;;4978923;28;20049;-78
2021/03/13 07:14:50;;;;;;;13.48;3.65;;;12.10;96.70;;;;;;4970134;28;20416;-74
2021/03/13 07:17:18;;;;;;;12.60;3.47;;;12.30;96.70;;;;;;4980839;28;20331;-74
2021/03/13 07:19:45;;;;;;;13.05;3.55;;;12.40;96.70;;;;;;4974744;28;20413;-74
2021/03/13 07:22:13;;;;;;;11.95;3.40;;;12.50;96.70;;;;;;4978624;28;20041;-74
2021/03/13 07:24:42;;;;;;;18.55;4.55;;;12.50;96.70;;;;;;4971067;28;20570;-74
2021/03/13 07:27:11;;;;;;;14.13;4.40;;;12.50;96.70;;;;;;4978715;28;20054;-74
2021/03/13 07:29:40;;;;;;;15.57;4.82;;;12.50;96.70;;;;;;4972722;28;20046;-74
2021/03/13 07:32:15;;;;;;;15.52;4.75;;;12.60;96.70;;;;;;4961800;28;20062;-74
2021/03/13 07:34:43;;;;;;;14.63;4.45;;;12.70;96.70;;;;;;4993893;28;20476;-74
2021/03/13 07:37:17;;;;;;;15.63;4.25;;;12.80;96.70;;;;;;4981033;28;20366;-74
2021/03/13 07:39:47;;;;;;;15.18;4.57;;;12.80;96.70;;;;;;4978211;28;20054;-75
2021/03/13 07:42:16;;;;;;;13.35;3.92;;;12.70;96.70;;;;;;4964938;28;20632;-74
2021/03/13 07:44:45;;;;;;;18.48;4.60;;;12.70;96.70;;;;;;4980646;28;20120;-74
2021/03/13 07:47:15;;;;;;;16.60;3.90;;;12.80;96.70;;;;;;4974111;28;20128;-74
2021/03/13 07:49:43;;;;;;;17.67;4.32;;;12.80;96.70;;;;;;4969934;28;20043;-75
2021/03/13 07:52:12;;;;;;;18.10;4.82;;;12.90;96.70;;;;;;4970539;28;20048;-79
2021/03/13 07:54:42;;;;;;;16.33;4.15;;;12.90;96.70;;;;;;4976575;28;20035;-79
2021/03/13 07:57:11;;;;;;;14.98;4.18;;;12.90;96.70;;;;;;4956348;28;20046;-80
2021/03/13 07:59:44;;;;;;;19.52;4.38;;;13.00;96.70;;;;;;4960496;28;20145;-79
2021/03/13 08:02:40;;;;;;;11.65;3.53;;;13.10;96.70;;;;;;4977663;28;20073;-81
2021/03/13 08:05:10;;;;;;;13.43;4.03;;;13.20;96.70;;;;;;4976805;28;20130;-75
2021/03/13 08:07:56;;;;;;;13.20;3.58;;;13.20;96.70;;;;;;4978122;28;23453;-74
2021/03/13 08:10:39;;;;;;;20.92;5.03;;;13.30;96.70;;;;;;4974522;28;20049;-75
2021/03/13 08:13:08;;;;;;;18.40;4.85;;;13.30;96.70;;;;;;4972795;28;20132;-75
2021/03/13 08:15:45;;;;;;;16.27;5.07;;;13.40;96.70;;;;;;4972193;28;20532;-75
2021/03/13 08:18:27;;;;;;;;;;;13.40;96.70;;;;;;4972015;28;20048;-74
2021/03/13 08:20:54;;;;;;;19.17;6.60;;;13.40;96.70;;;;;;4975636;28;19925;-74
2021/03/13 08:23:22;;;;;;;30.85;8.07;;;13.50;96.70;;;;;;4980815;28;20108;-75
2021/03/13 08:25:53;;;;;;;16.65;6.05;;;13.50;96.70;;;;;;4971458;28;20051;-74
2021/03/13 08:28:50;;;;;;;15.60;6.43;;;13.50;96.70;;;;;;4976555;28;20042;-74
2021/03/13 08:31:35;;;;;;;14.77;5.50;;;13.50;96.70;;;;;;4978878;28;20389;-75
2021/03/13 08:34:33;;;;;;;19.85;5.88;;;13.40;96.70;;;;;;4979052;28;20050;-75
2021/03/13 08:37:15;;;;;;;19.58;5.07;;;13.50;96.70;;;;;;4995088;28;20137;-75
2021/03/13 08:39:48;;;;;;;16.38;4.78;;;13.50;96.70;;;;;;4972647;28;20050;-75
2021/03/13 08:42:31;;;;;;;16.42;4.78;;;13.70;96.70;;;;;;4970584;28;20039;-75
2021/03/13 08:45:14;;;;;;;13.15;4.32;;;13.70;96.70;;;;;;4976281;28;20038;-75
2021/03/13 08:47:54;;;;;;;14.75;4.97;;;13.90;96.70;;;;;;4975509;28;20060;-74
2021/03/13 08:50:51;;;;;;;17.90;5.45;;;13.90;96.70;;;;;;4975400;28;20050;-74
2021/03/13 08:53:34;;;;;;;20.23;4.40;;;14.00;96.70;;;;;;4982979;28;20096;-74
2021/03/13 08:56:02;;;;;;;21.42;3.97;;;14.10;96.70;;;;;;4966764;28;20058;-75
2021/03/13 08:58:39;;;;;;;16.27;4.13;;;14.10;96.70;;;;;;4969960;28;20153;-75
2021/03/13 09:01:15;;;;;;;17.05;4.40;;;14.20;96.70;;;;;;4972729;28;20078;-75
2021/03/13 09:03:47;;;;;;;14.93;4.97;;;14.20;96.70;;;;;;4970421;28;20038;-74
2021/03/13 09:06:16;;;;;;;14.77;3.95;;;14.30;96.70;;;;;;4972748;28;20065;-75
2021/03/13 09:08:43;;;;;;;21.60;4.53;;;14.30;96.70;;;;;;4971135;28;20480;-74
2021/03/13 09:11:11;;;;;;;14.77;4.13;;;14.30;96.70;;;;;;4975398;28;20046;-74
2021/03/13 09:13:38;;;;;;;14.00;3.58;;;14.40;96.70;;;;;;4975372;28;20523;-74
2021/03/13 09:16:20;;;;;;;15.32;4.53;;;14.50;96.70;;;;;;4972109;28;20504;-75
2021/03/13 09:18:52;;;;;;;15.90;3.53;;;14.60;96.70;;;;;;4971562;28;20042;-74
2021/03/13 09:21:38;;;;;;;13.77;4.25;;;14.70;96.70;;;;;;4971106;28;20149;-75
2021/03/13 09:24:07;;;;;;;17.33;3.42;;;14.90;96.70;;;;;;4973241;28;20452;-75
2021/03/13 09:26:34;;;;;;;9.13;2.53;;;15.00;96.70;;;;;;4959429;28;20172;-74
2021/03/13 09:29:02;;;;;;;11.23;2.88;;;15.00;96.70;;;;;;4969748;28;20073;-74
2021/03/13 09:31:30;;;;;;;10.77;2.90;;;15.10;96.70;;;;;;4969830;28;20069;-76
2021/03/13 09:34:15;;;;;;;13.88;3.05;;;15.00;96.70;;;;;;4975684;28;20047;-76
2021/03/13 09:36:57;;;;;;;16.95;3.28;;;14.90;96.70;;;;;;4972921;28;20039;-74
2021/03/13 09:39:27;;;;;;;11.18;3.10;;;14.80;96.70;;;;;;4971438;28;20509;-76
2021/03/13 09:42:04;;;;;;;14.32;2.85;;;14.80;96.70;;;;;;4973049;28;20054;-77
2021/03/13 09:44:33;;;;;;;22.75;11.45;;;14.80;96.70;;;;;;4972540;28;20053;-78
2021/03/13 09:47:08;;;;;;;10.35;3.60;;;15.00;96.70;;;;;;4971996;28;20046;-75
2021/03/13 09:49:36;;;;;;;9.73;2.17;;;15.20;95.10;;;;;;4973091;28;20504;-76
2021/03/13 09:52:04;;;;;;;6.82;1.63;;;15.20;93.70;;;;;;4973410;28;20035;-76
2021/03/13 09:54:32;;;;;;;9.07;1.77;;;15.30;92.50;;;;;;4973518;28;20042;-75
2021/03/13 09:57:11;;;;;;;10.82;1.95;;;15.40;92.30;;;;;;4972645;28;20543;-76
2021/03/13 09:59:39;;;;;;;7.57;1.77;;;15.30;93.00;;;;;;4976418;28;20575;-76
2021/03/13 10:02:07;;;;;;;10.50;1.65;;;15.30;93.50;;;;;;4974203;28;20112;-75
2021/03/13 10:04:36;;;;;;;6.95;1.38;;;15.20;93.50;;;;;;4972145;28;20050;-75
2021/03/13 10:07:21;;;;;;;9.15;1.73;;;15.20;93.30;;;;;;4975845;28;20076;-75
2021/03/13 10:09:54;;;;;;;7.70;1.48;;;15.40;93.10;;;;;;4977120;28;20413;-75
2021/03/13 10:12:25;;;;;;;6.85;1.10;;;15.60;93.30;;;;;;4989132;28;20527;-74
2021/03/13 10:14:53;;;;;;;9.38;1.73;;;15.40;91.70;;;;;;4995676;28;20050;-75
2021/03/13 10:17:20;;;;;;;13.10;1.80;;;15.40;91.70;;;;;;4971332;28;20194;-74
2021/03/13 10:19:49;;;;;;;7.97;1.38;;;15.60;92.30;;;;;;4969990;28;20046;-74
2021/03/13 10:22:21;;;;;;;7.25;1.20;;;15.90;91.90;;;;;;4978743;28;20404;-75
2021/03/13 10:24:51;;;;;;;8.43;2.22;;;15.90;91.60;;;;;;4973770;28;20234;-75
2021/03/13 10:27:21;;;;;;;14.63;1.60;;;16.10;91.40;;;;;;4968883;28;20148;-75
2021/03/13 10:29:51;;;;;;;9.73;2.67;;;16.30;88.60;;;;;;4972064;28;20058;-75
2021/03/13 10:32:24;;;;;;;8.27;1.40;;;16.20;88.50;;;;;;4975869;28;20034;-75
2021/03/13 10:35:12;;;;;;;5.45;1.27;;;16.30;89.30;;;;;;4972916;28;20133;-76
2021/03/13 10:37:51;;;;;;;9.57;1.33;;;16.00;88.10;;;;;;4974266;28;20054;-76
2021/03/13 10:40:34;;;;;;;9.35;1.67;;;15.80;88.30;;;;;;4956248;28;20047;-76
2021/03/13 10:43:11;;;;;;;5.38;1.73;;;15.90;89.50;;;;;;4965601;28;20074;-75
2021/03/13 10:45:39;;;;;;;9.25;2.17;;;15.80;89.30;;;;;;4968721;28;20320;-75
2021/03/13 10:48:11;;;;;;;6.50;1.30;;;15.70;90.70;;;;;;4973739;28;20145;-75
2021/03/13 10:50:42;;;;;;;9.10;1.60;;;16.10;90.40;;;;;;4971215;28;20045;-75
2021/03/13 10:53:25;;;;;;;6.00;1.70;;;16.10;89.70;;;;;;4973679;28;20393;-75
2021/03/13 10:55:53;;;;;;;11.70;1.88;;;15.90;90.20;;;;;;4960016;28;20137;-79
2021/03/13 10:58:22;;;;;;;11.60;1.58;;;16.10;90.20;;;;;;4974649;28;20085;-75
2021/03/13 11:00:50;;;;;;;8.85;1.70;;;16.20;90.00;;;;;;4972646;28;20084;-74
2021/03/13 11:03:18;;;;;;;6.05;1.20;;;16.20;89.60;;;;;;4969400;28;20053;-74
2021/03/13 11:05:50;;;;;;;4.68;1.30;;;16.10;90.20;;;;;;4971759;28;20047;-74
2021/03/13 11:08:18;;;;;;;6.72;1.45;;;16.20;89.60;;;;;;4978808;28;20053;-75
2021/03/13 11:10:46;;;;;;;6.80;1.83;;;16.10;89.30;;;;;;4977435;28;20519;-76
2021/03/13 11:13:13;;;;;;;6.50;1.20;;;16.00;89.40;;;;;;4973804;28;20137;-74
2021/03/13 11:15:41;;;;;;;9.98;2.38;;;16.00;89.80;;;;;;4971081;28;20050;-74
2021/03/13 11:18:09;;;;;;;8.85;1.52;;;16.10;88.80;;;;;;4972233;28;20106;-73
2021/03/13 11:20:37;;;;;;;7.20;1.45;;;16.40;89.00;;;;;;4976426;28;20039;-75
2021/03/13 11:23:06;;;;;;;8.93;2.05;;;16.70;87.10;;;;;;4955691;28;20053;-76
2021/03/13 11:25:34;;;;;;;9.18;1.50;;;16.60;86.50;;;;;;4977943;28;20120;-77
2021/03/13 11:28:07;;;;;;;6.93;1.50;;;16.40;86.80;;;;;;4975899;28;20140;-74
2021/03/13 11:30:36;;;;;;;8.05;1.63;;;16.40;87.30;;;;;;4972929;28;20038;-74
2021/03/13 11:33:04;;;;;;;7.13;1.60;;;16.40;87.30;;;;;;4980217;28;20035;-74
2021/03/13 11:35:32;;;;;;;7.63;1.55;;;16.50;86.60;;;;;;4973771;28;20113;-74
2021/03/13 11:37:59;;;;;;;7.35;1.75;;;16.70;86.20;;;;;;4978039;28;20117;-74
2021/03/13 11:40:28;;;;;;;7.22;1.27;;;16.70;85.50;;;;;;4960764;28;20138;-74
2021/03/13 11:43:00;;;;;;;23.92;14.82;;;16.60;85.60;;;;;;4974000;28;20058;-75
2021/03/13 11:45:28;;;;;;;8.05;1.63;;;16.60;84.30;;;;;;4974998;28;20113;-74
2021/03/13 11:47:57;;;;;;;5.43;1.10;;;16.60;84.70;;;;;;4976099;28;20492;-74
2021/03/13 11:50:28;;;;;;;7.05;1.38;;;16.60;85.30;;;;;;4975084;28;20043;-74
2021/03/13 11:52:57;;;;;;;8.35;1.52;;;16.80;85.30;;;;;;4971353;28;20057;-78
2021/03/13 11:55:25;;;;;;;9.68;2.10;;;16.80;85.40;;;;;;4973991;28;20117;-75
2021/03/13 11:57:54;;;;;;;9.23;1.75;;;16.70;86.20;;;;;;4959509;28;20048;-76
2021/03/13 12:00:22;;;;;;;6.47;1.92;;;16.60;85.90;;;;;;4976696;28;20041;-74
2021/03/13 12:02:50;;;;;;;12.10;3.13;;;16.40;86.70;;;;;;4981050;28;20520;-75
2021/03/13 12:05:19;;;;;;;5.78;1.65;;;16.70;87.10;;;;;;4977282;28;20042;-77
2021/03/13 12:07:47;;;;;;;9.50;1.65;;;17.00;87.00;;;;;;4965162;28;20034;-76
2021/03/13 12:10:15;;;;;;;8.30;1.52;;;17.20;86.90;;;;;;4978041;28;20046;-76
2021/03/13 12:12:43;;;;;;;10.35;2.53;;;17.10;86.10;;;;;;4975460;28;20431;-76
2021/03/13 12:15:13;;;;;;;9.15;2.00;;;17.30;87.10;;;;;;4974829;28;20050;-75
2021/03/13 12:17:41;;;;;;;7.35;1.77;;;17.40;86.50;;;;;;4971837;28;20123;-74
2021/03/13 12:20:10;;;;;;;8.52;2.03;;;17.20;86.20;;;;;;4972306;28;20102;-75
2021/03/13 12:22:38;;;;;;;7.18;1.50;;;17.20;87.10;;;;;;4974885;28;20584;-75
2021/03/13 12:25:07;;;;;;;9.07;1.70;;;17.50;87.00;;;;;;4980067;28;20101;-76
2021/03/13 12:27:39;;;;;;;5.63;1.63;;;17.50;85.60;;;;;;4976429;28;20038;-75
2021/03/13 12:30:08;;;;;;;7.35;1.55;;;17.60;85.00;;;;;;4974311;28;20053;-75
2021/03/13 12:32:37;;;;;;;8.05;1.48;;;17.50;85.00;;;;;;4977076;28;20043;-75
2021/03/13 12:35:08;;;;;;;8.20;2.05;;;17.50;84.70;;;;;;4971558;28;20122;-75
2021/03/13 12:37:36;;;;;;;6.82;1.63;;;17.20;84.90;;;;;;4974535;28;20049;-75
2021/03/13 12:40:05;;;;;;;10.10;2.08;;;17.20;86.00;;;;;;4967666;28;20061;-77
2021/03/13 12:42:33;;;;;;;8.98;1.60;;;17.20;86.10;;;;;;4971143;28;20479;-76
2021/03/13 12:45:00;;;;;;;11.25;1.77;;;17.10;86.30;;;;;;4961467;28;20038;-76
2021/03/13 12:47:29;;;;;;;9.23;1.92;;;17.10;87.20;;;;;;4969672;28;20038;-75
2021/03/13 12:49:57;;;;;;;8.65;1.65;;;17.00;86.00;;;;;;4973002;28;20038;-75
2021/03/13 12:52:25;;;;;;;7.78;1.73;;;17.00;86.50;;;;;;4982665;28;20046;-75
2021/03/13 12:54:52;;;;;;;8.68;1.77;;;16.70;87.60;;;;;;4973699;28;20101;-75
2021/03/13 12:57:20;;;;;;;9.82;1.60;;;16.60;88.60;;;;;;4974828;28;20042;-74
2021/03/13 12:59:47;;;;;;;7.07;2.60;;;16.70;88.70;;;;;;4971725;28;20043;-74